sensor_id;sensor_type;location;lat;lon;timestamp;P1;durP1;ratioP1;P2;durP2;ratioP2
53867;SDS011;41577;47.470;19.080;2023-07-29T00:00:02;6.00;;;2.83;;
53867;SDS011;41577;47.470;19.080;2023-07-29T00:00:22;4.38;;;3.25;;
53867;SDS011;41577;47.470;19.080;2023-07-29T00:00:34;5.25;;;3.72;;
53867;SDS011;41577;47.470;19.080;2023-07-29T00:00:46;4.85;;;3.38;;
53867;SDS011;41577;47.470;19.080;2023-07-29T00:01:00;4.78;;;2.85;;
53867;SDS011;41577;47.470;19.080;2023-07-29T00:01:11;5.53;;;3.00;;
53867;SDS011;41577;47.470;19.080;2023-07-29T00:01:23;6.07;;;3.20;;
53867;SDS011;41577;47.470;19.080;2023-07-29T00:01:35;4.97;;;3.10;;
53867;SDS011;41577;47.470;19.080;2023-07-29T00:01:47;4.88;;;3.00;;
53867;SDS011;41577;47.470;19.080;2023-07-29T00:01:59;8.38;;;3.33;;
53867;SDS011;41577;47.470;19.080;2023-07-29T00:02:11;8.75;;;3.38;;
53867;SDS011;41577;47.470;19.080;2023-07-29T00:02:23;5.10;;;3.55;;
53867;SDS011;41577;47.470;19.080;2023-07-29T00:02:35;5.03;;;3.28;;
53867;SDS011;41577;47.470;19.080;2023-07-29T00:02:47;8.25;;;3.03;;
53867;SDS011;41577;47.470;19.080;2023-07-29T00:02:59;10.75;;;3.08;;
53867;SDS011;41577;47.470;19.080;2023-07-29T00:03:11;12.65;;;3.17;;
53867;SDS011;41577;47.470;19.080;2023-07-29T00:03:23;9.57;;;3.03;;
53867;SDS011;41577;47.470;19.080;2023-07-29T00:03:35;5.50;;;2.90;;
53867;SDS011;41577;47.470;19.080;2023-07-29T00:03:47;6.25;;;3.10;;
53867;SDS011;41577;47.470;19.080;2023-07-29T00:03:59;4.75;;;3.13;;
53867;SDS011;41577;47.470;19.080;2023-07-29T00:04:11;4.30;;;2.97;;
53867;SDS011;41577;47.470;19.080;2023-07-29T00:04:23;5.75;;;3.55;;
53867;SDS011;41577;47.470;19.080;2023-07-29T00:04:35;7.82;;;3.78;;
53867;SDS011;41577;47.470;19.080;2023-07-29T00:04:46;7.72;;;3.35;;
53867;SDS011;41577;47.470;19.080;2023-07-29T00:04:58;6.95;;;2.97;;
53867;SDS011;41577;47.470;19.080;2023-07-29T00:05:10;9.55;;;2.90;;
53867;SDS011;41577;47.470;19.080;2023-07-29T00:05:22;10.10;;;3.45;;
53867;SDS011;41577;47.470;19.080;2023-07-29T00:05:34;8.93;;;3.30;;
53867;SDS011;41577;47.470;19.080;2023-07-29T00:05:46;8.70;;;3.42;;
53867;SDS011;41577;47.470;19.080;2023-07-29T00:05:59;6.88;;;3.15;;
53867;SDS011;41577;47.470;19.080;2023-07-29T00:06:10;8.93;;;3.25;;
53867;SDS011;41577;47.470;19.080;2023-07-29T00:06:23;9.13;;;2.90;;
53867;SDS011;41577;47.470;19.080;2023-07-29T00:06:35;6.78;;;2.88;;
53867;SDS011;41577;47.470;19.080;2023-07-29T00:06:47;5.57;;;2.95;;
53867;SDS011;41577;47.470;19.080;2023-07-29T00:06:59;5.07;;;3.15;;
53867;SDS011;41577;47.470;19.080;2023-07-29T00:07:11;4.00;;;3.20;;
53867;SDS011;41577;47.470;19.080;2023-07-29T00:07:23;7.28;;;3.33;;
53867;SDS011;41577;47.470;19.080;2023-07-29T00:07:34;7.65;;;3.35;;
53867;SDS011;41577;47.470;19.080;2023-07-29T00:07:46;6.72;;;3.22;;
53867;SDS011;41577;47.470;19.080;2023-07-29T00:07:58;3.83;;;3.10;;
53867;SDS011;41577;47.470;19.080;2023-07-29T00:08:10;6.90;;;3.20;;
53867;SDS011;41577;47.470;19.080;2023-07-29T00:08:22;6.95;;;3.10;;
53867;SDS011;41577;47.470;19.080;2023-07-29T00:08:33;5.80;;;2.92;;
53867;SDS011;41577;47.470;19.080;2023-07-29T00:08:45;6.78;;;2.85;;
53867;SDS011;41577;47.470;19.080;2023-07-29T00:08:57;6.45;;;2.88;;
53867;SDS011;41577;47.470;19.080;2023-07-29T00:09:09;5.70;;;3.50;;
53867;SDS011;41577;47.470;19.080;2023-07-29T00:09:21;5.95;;;3.70;;
53867;SDS011;41577;47.470;19.080;2023-07-29T00:09:33;6.95;;;3.65;;
53867;SDS011;41577;47.470;19.080;2023-07-29T00:09:45;8.70;;;3.40;;
53867;SDS011;41577;47.470;19.080;2023-07-29T00:09:56;10.48;;;3.40;;
53867;SDS011;41577;47.470;19.080;2023-07-29T00:10:08;14.02;;;3.70;;
53867;SDS011;41577;47.470;19.080;2023-07-29T00:10:20;12.80;;;3.85;;
53867;SDS011;41577;47.470;19.080;2023-07-29T00:10:32;10.35;;;3.92;;
53867;SDS011;41577;47.470;19.080;2023-07-29T00:10:47;5.90;;;3.67;;
53867;SDS011;41577;47.470;19.080;2023-07-29T00:10:58;5.13;;;3.65;;
53867;SDS011;41577;47.470;19.080;2023-07-29T00:11:10;14.43;;;4.25;;
53867;SDS011;41577;47.470;19.080;2023-07-29T00:11:22;15.00;;;4.65;;
53867;SDS011;41577;47.470;19.080;2023-07-29T00:11:34;9.18;;;4.15;;
53867;SDS011;41577;47.470;19.080;2023-07-29T00:11:45;6.82;;;3.63;;
53867;SDS011;41577;47.470;19.080;2023-07-29T00:11:57;6.45;;;3.45;;
53867;SDS011;41577;47.470;19.080;2023-07-29T00:12:09;7.55;;;3.10;;
53867;SDS011;41577;47.470;19.080;2023-07-29T00:12:21;7.03;;;3.33;;
53867;SDS011;41577;47.470;19.080;2023-07-29T00:12:33;7.72;;;3.30;;
53867;SDS011;41577;47.470;19.080;2023-07-29T00:12:45;10.48;;;3.42;;
53867;SDS011;41577;47.470;19.080;2023-07-29T00:12:57;11.20;;;3.47;;
53867;SDS011;41577;47.470;19.080;2023-07-29T00:13:08;10.60;;;3.40;;
53867;SDS011;41577;47.470;19.080;2023-07-29T00:13:20;8.48;;;3.30;;
53867;SDS011;41577;47.470;19.080;2023-07-29T00:13:33;8.20;;;3.42;;
53867;SDS011;41577;47.470;19.080;2023-07-29T00:13:45;3.60;;;2.97;;
53867;SDS011;41577;47.470;19.080;2023-07-29T00:13:57;4.55;;;3.05;;
53867;SDS011;41577;47.470;19.080;2023-07-29T00:14:08;4.63;;;2.97;;
53867;SDS011;41577;47.470;19.080;2023-07-29T00:14:20;4.82;;;3.05;;
53867;SDS011;41577;47.470;19.080;2023-07-29T00:14:32;5.43;;;2.78;;
53867;SDS011;41577;47.470;19.080;2023-07-29T00:14:44;7.55;;;2.88;;
53867;SDS011;41577;47.470;19.080;2023-07-29T00:14:56;6.45;;;2.92;;
53867;SDS011;41577;47.470;19.080;2023-07-29T00:15:08;4.25;;;2.90;;
53867;SDS011;41577;47.470;19.080;2023-07-29T00:15:20;6.75;;;2.90;;
53867;SDS011;41577;47.470;19.080;2023-07-29T00:15:32;8.45;;;2.97;;
53867;SDS011;41577;47.470;19.080;2023-07-29T00:15:44;6.72;;;2.88;;
53867;SDS011;41577;47.470;19.080;2023-07-29T00:15:56;6.25;;;2.92;;
53867;SDS011;41577;47.470;19.080;2023-07-29T00:16:09;3.72;;;2.70;;
53867;SDS011;41577;47.470;19.080;2023-07-29T00:16:21;3.92;;;2.97;;
53867;SDS011;41577;47.470;19.080;2023-07-29T00:16:33;3.85;;;2.97;;
53867;SDS011;41577;47.470;19.080;2023-07-29T00:16:45;3.88;;;2.67;;
53867;SDS011;41577;47.470;19.080;2023-07-29T00:16:57;3.35;;;2.50;;
53867;SDS011;41577;47.470;19.080;2023-07-29T00:17:09;3.63;;;2.75;;
53867;SDS011;41577;47.470;19.080;2023-07-29T00:17:21;4.45;;;3.05;;
53867;SDS011;41577;47.470;19.080;2023-07-29T00:17:33;4.80;;;3.10;;
53867;SDS011;41577;47.470;19.080;2023-07-29T00:17:45;5.38;;;3.20;;
53867;SDS011;41577;47.470;19.080;2023-07-29T00:17:57;5.63;;;3.13;;
53867;SDS011;41577;47.470;19.080;2023-07-29T00:18:09;5.38;;;2.80;;
53867;SDS011;41577;47.470;19.080;2023-07-29T00:18:21;5.53;;;2.60;;
53867;SDS011;41577;47.470;19.080;2023-07-29T00:18:33;5.15;;;2.83;;
53867;SDS011;41577;47.470;19.080;2023-07-29T00:18:45;4.05;;;2.80;;
53867;SDS011;41577;47.470;19.080;2023-07-29T00:18:57;3.35;;;2.90;;
53867;SDS011;41577;47.470;19.080;2023-07-29T00:19:09;3.90;;;2.90;;
53867;SDS011;41577;47.470;19.080;2023-07-29T00:19:21;5.82;;;3.05;;
53867;SDS011;41577;47.470;19.080;2023-07-29T00:19:33;9.65;;;3.30;;
53867;SDS011;41577;47.470;19.080;2023-07-29T00:19:44;7.95;;;3.15;;
53867;SDS011;41577;47.470;19.080;2023-07-29T00:20:19;3.30;;;2.72;;
53867;SDS011;41577;47.470;19.080;2023-07-29T00:20:31;6.80;;;2.63;;
53867;SDS011;41577;47.470;19.080;2023-07-29T00:20:43;5.85;;;2.50;;
53867;SDS011;41577;47.470;19.080;2023-07-29T00:20:55;5.10;;;2.47;;
53867;SDS011;41577;47.470;19.080;2023-07-29T00:21:06;3.72;;;2.47;;
53867;SDS011;41577;47.470;19.080;2023-07-29T00:21:18;3.70;;;2.20;;
53867;SDS011;41577;47.470;19.080;2023-07-29T00:21:30;4.72;;;2.58;;
53867;SDS011;41577;47.470;19.080;2023-07-29T00:21:42;5.53;;;3.15;;
53867;SDS011;41577;47.470;19.080;2023-07-29T00:21:56;7.00;;;3.30;;
53867;SDS011;41577;47.470;19.080;2023-07-29T00:22:08;6.40;;;2.72;;
53867;SDS011;41577;47.470;19.080;2023-07-29T00:22:20;5.72;;;2.75;;
53867;SDS011;41577;47.470;19.080;2023-07-29T00:22:32;4.97;;;2.95;;
53867;SDS011;41577;47.470;19.080;2023-07-29T00:22:43;4.50;;;2.85;;
53867;SDS011;41577;47.470;19.080;2023-07-29T00:22:55;6.68;;;2.92;;
53867;SDS011;41577;47.470;19.080;2023-07-29T00:23:07;6.68;;;2.78;;
53867;SDS011;41577;47.470;19.080;2023-07-29T00:23:19;6.15;;;2.65;;
53867;SDS011;41577;47.470;19.080;2023-07-29T00:23:30;6.47;;;2.83;;
53867;SDS011;41577;47.470;19.080;2023-07-29T00:23:42;6.28;;;2.75;;
53867;SDS011;41577;47.470;19.080;2023-07-29T00:23:54;6.72;;;2.90;;
53867;SDS011;41577;47.470;19.080;2023-07-29T00:24:06;4.32;;;2.90;;
53867;SDS011;41577;47.470;19.080;2023-07-29T00:24:17;3.95;;;2.75;;
53867;SDS011;41577;47.470;19.080;2023-07-29T00:24:29;5.20;;;2.80;;
53867;SDS011;41577;47.470;19.080;2023-07-29T00:24:41;7.35;;;3.15;;
53867;SDS011;41577;47.470;19.080;2023-07-29T00:24:53;6.85;;;2.95;;
53867;SDS011;41577;47.470;19.080;2023-07-29T00:25:06;5.20;;;2.75;;
53867;SDS011;41577;47.470;19.080;2023-07-29T00:25:18;5.55;;;2.75;;
53867;SDS011;41577;47.470;19.080;2023-07-29T00:25:30;5.78;;;2.67;;
53867;SDS011;41577;47.470;19.080;2023-07-29T00:25:41;7.38;;;2.85;;
53867;SDS011;41577;47.470;19.080;2023-07-29T00:25:53;5.57;;;2.58;;
53867;SDS011;41577;47.470;19.080;2023-07-29T00:26:05;3.85;;;2.47;;
53867;SDS011;41577;47.470;19.080;2023-07-29T00:26:17;3.58;;;2.40;;
53867;SDS011;41577;47.470;19.080;2023-07-29T00:26:29;3.78;;;2.92;;
53867;SDS011;41577;47.470;19.080;2023-07-29T00:26:42;4.03;;;2.97;;
53867;SDS011;41577;47.470;19.080;2023-07-29T00:26:53;3.17;;;2.67;;
53867;SDS011;41577;47.470;19.080;2023-07-29T00:27:05;2.75;;;2.55;;
53867;SDS011;41577;47.470;19.080;2023-07-29T00:27:17;2.97;;;2.58;;
53867;SDS011;41577;47.470;19.080;2023-07-29T00:27:29;3.20;;;2.30;;
53867;SDS011;41577;47.470;19.080;2023-07-29T00:27:40;3.28;;;2.20;;
53867;SDS011;41577;47.470;19.080;2023-07-29T00:27:54;3.20;;;2.38;;
53867;SDS011;41577;47.470;19.080;2023-07-29T00:28:06;4.15;;;2.58;;
53867;SDS011;41577;47.470;19.080;2023-07-29T00:28:18;4.53;;;2.70;;
53867;SDS011;41577;47.470;19.080;2023-07-29T00:28:33;7.15;;;3.28;;
53867;SDS011;41577;47.470;19.080;2023-07-29T00:28:45;11.50;;;3.47;;
53867;SDS011;41577;47.470;19.080;2023-07-29T00:28:57;11.20;;;3.22;;
53867;SDS011;41577;47.470;19.080;2023-07-29T00:29:09;9.48;;;2.90;;
53867;SDS011;41577;47.470;19.080;2023-07-29T00:29:21;6.75;;;2.90;;
53867;SDS011;41577;47.470;19.080;2023-07-29T00:29:35;6.97;;;2.90;;
53867;SDS011;41577;47.470;19.080;2023-07-29T00:29:46;9.45;;;2.88;;
53867;SDS011;41577;47.470;19.080;2023-07-29T00:29:58;9.73;;;3.05;;
53867;SDS011;41577;47.470;19.080;2023-07-29T00:30:10;11.20;;;3.13;;
53867;SDS011;41577;47.470;19.080;2023-07-29T00:30:23;5.88;;;2.75;;
53867;SDS011;41577;47.470;19.080;2023-07-29T00:30:35;4.53;;;2.60;;
53867;SDS011;41577;47.470;19.080;2023-07-29T00:30:47;5.25;;;2.70;;
53867;SDS011;41577;47.470;19.080;2023-07-29T00:30:58;6.32;;;3.00;;
53867;SDS011;41577;47.470;19.080;2023-07-29T00:31:12;5.93;;;3.03;;
53867;SDS011;41577;47.470;19.080;2023-07-29T00:31:24;6.13;;;3.00;;
53867;SDS011;41577;47.470;19.080;2023-07-29T00:31:35;4.47;;;2.60;;
53867;SDS011;41577;47.470;19.080;2023-07-29T00:31:47;4.57;;;2.58;;
53867;SDS011;41577;47.470;19.080;2023-07-29T00:31:59;5.53;;;2.85;;
53867;SDS011;41577;47.470;19.080;2023-07-29T00:32:11;5.38;;;2.83;;
53867;SDS011;41577;47.470;19.080;2023-07-29T00:32:23;7.15;;;2.80;;
53867;SDS011;41577;47.470;19.080;2023-07-29T00:32:35;10.15;;;2.85;;
53867;SDS011;41577;47.470;19.080;2023-07-29T00:32:47;8.77;;;2.83;;
53867;SDS011;41577;47.470;19.080;2023-07-29T00:32:59;9.18;;;2.75;;
53867;SDS011;41577;47.470;19.080;2023-07-29T00:33:10;5.43;;;2.47;;
53867;SDS011;41577;47.470;19.080;2023-07-29T00:33:22;7.50;;;2.35;;
53867;SDS011;41577;47.470;19.080;2023-07-29T00:33:34;7.38;;;2.58;;
53867;SDS011;41577;47.470;19.080;2023-07-29T00:33:46;4.03;;;2.55;;
53867;SDS011;41577;47.470;19.080;2023-07-29T00:33:58;8.57;;;2.70;;
53867;SDS011;41577;47.470;19.080;2023-07-29T00:34:10;9.18;;;2.53;;
53867;SDS011;41577;47.470;19.080;2023-07-29T00:34:22;6.70;;;2.47;;
53867;SDS011;41577;47.470;19.080;2023-07-29T00:34:34;5.28;;;2.63;;
53867;SDS011;41577;47.470;19.080;2023-07-29T00:34:45;5.30;;;2.83;;
53867;SDS011;41577;47.470;19.080;2023-07-29T00:34:57;6.53;;;3.05;;
53867;SDS011;41577;47.470;19.080;2023-07-29T00:35:09;11.13;;;3.35;;
53867;SDS011;41577;47.470;19.080;2023-07-29T00:35:21;11.10;;;3.40;;
53867;SDS011;41577;47.470;19.080;2023-07-29T00:35:33;9.15;;;3.13;;
53867;SDS011;41577;47.470;19.080;2023-07-29T00:35:45;3.50;;;2.78;;
53867;SDS011;41577;47.470;19.080;2023-07-29T00:35:57;6.57;;;2.70;;
53867;SDS011;41577;47.470;19.080;2023-07-29T00:36:09;7.72;;;2.97;;
53867;SDS011;41577;47.470;19.080;2023-07-29T00:36:21;6.80;;;3.00;;
53867;SDS011;41577;47.470;19.080;2023-07-29T00:36:32;4.30;;;2.78;;
53867;SDS011;41577;47.470;19.080;2023-07-29T00:36:45;6.30;;;2.97;;
53867;SDS011;41577;47.470;19.080;2023-07-29T00:36:57;6.35;;;3.20;;
53867;SDS011;41577;47.470;19.080;2023-07-29T00:37:08;7.38;;;2.95;;
53867;SDS011;41577;47.470;19.080;2023-07-29T00:37:20;8.23;;;2.80;;
53867;SDS011;41577;47.470;19.080;2023-07-29T00:37:32;8.88;;;3.17;;
53867;SDS011;41577;47.470;19.080;2023-07-29T00:37:44;5.57;;;3.28;;
53867;SDS011;41577;47.470;19.080;2023-07-29T00:37:56;6.25;;;3.25;;
53867;SDS011;41577;47.470;19.080;2023-07-29T00:38:08;6.65;;;3.05;;
53867;SDS011;41577;47.470;19.080;2023-07-29T00:38:20;4.45;;;2.80;;
53867;SDS011;41577;47.470;19.080;2023-07-29T00:38:32;4.25;;;2.85;;
53867;SDS011;41577;47.470;19.080;2023-07-29T00:38:43;4.28;;;2.92;;
53867;SDS011;41577;47.470;19.080;2023-07-29T00:38:55;4.85;;;2.78;;
53867;SDS011;41577;47.470;19.080;2023-07-29T00:39:07;5.60;;;2.63;;
53867;SDS011;41577;47.470;19.080;2023-07-29T00:39:20;10.95;;;2.78;;
53867;SDS011;41577;47.470;19.080;2023-07-29T00:39:32;10.25;;;2.75;;
53867;SDS011;41577;47.470;19.080;2023-07-29T00:39:43;9.82;;;2.90;;
53867;SDS011;41577;47.470;19.080;2023-07-29T00:39:55;4.07;;;2.90;;
53867;SDS011;41577;47.470;19.080;2023-07-29T00:40:09;4.43;;;2.95;;
53867;SDS011;41577;47.470;19.080;2023-07-29T00:40:27;7.28;;;2.90;;
53867;SDS011;41577;47.470;19.080;2023-07-29T00:40:39;6.88;;;3.00;;
53867;SDS011;41577;47.470;19.080;2023-07-29T00:40:52;6.75;;;3.03;;
53867;SDS011;41577;47.470;19.080;2023-07-29T00:41:04;6.20;;;3.05;;
53867;SDS011;41577;47.470;19.080;2023-07-29T00:41:16;6.90;;;3.28;;
53867;SDS011;41577;47.470;19.080;2023-07-29T00:41:28;6.93;;;3.42;;
53867;SDS011;41577;47.470;19.080;2023-07-29T00:41:40;6.80;;;3.65;;
53867;SDS011;41577;47.470;19.080;2023-07-29T00:41:52;8.18;;;3.33;;
53867;SDS011;41577;47.470;19.080;2023-07-29T00:42:06;7.00;;;3.25;;
53867;SDS011;41577;47.470;19.080;2023-07-29T00:42:18;5.05;;;3.25;;
53867;SDS011;41577;47.470;19.080;2023-07-29T00:42:29;5.07;;;3.03;;
53867;SDS011;41577;47.470;19.080;2023-07-29T00:42:41;5.72;;;3.05;;
53867;SDS011;41577;47.470;19.080;2023-07-29T00:42:53;5.07;;;2.78;;
53867;SDS011;41577;47.470;19.080;2023-07-29T00:43:05;4.05;;;2.67;;
53867;SDS011;41577;47.470;19.080;2023-07-29T00:43:19;3.50;;;2.80;;
53867;SDS011;41577;47.470;19.080;2023-07-29T00:43:31;7.10;;;2.90;;
53867;SDS011;41577;47.470;19.080;2023-07-29T00:43:45;8.52;;;2.63;;
53867;SDS011;41577;47.470;19.080;2023-07-29T00:43:57;7.10;;;2.40;;
53867;SDS011;41577;47.470;19.080;2023-07-29T00:44:08;5.40;;;2.67;;
53867;SDS011;41577;47.470;19.080;2023-07-29T00:44:20;4.28;;;2.88;;
53867;SDS011;41577;47.470;19.080;2023-07-29T00:44:32;4.60;;;2.88;;
53867;SDS011;41577;47.470;19.080;2023-07-29T00:44:45;6.05;;;2.78;;
53867;SDS011;41577;47.470;19.080;2023-07-29T00:44:56;6.25;;;2.80;;
53867;SDS011;41577;47.470;19.080;2023-07-29T00:45:10;5.18;;;2.72;;
53867;SDS011;41577;47.470;19.080;2023-07-29T00:45:21;3.97;;;2.67;;
53867;SDS011;41577;47.470;19.080;2023-07-29T00:45:36;3.92;;;2.45;;
53867;SDS011;41577;47.470;19.080;2023-07-29T00:45:51;5.35;;;2.80;;
53867;SDS011;41577;47.470;19.080;2023-07-29T00:46:03;4.53;;;2.90;;
53867;SDS011;41577;47.470;19.080;2023-07-29T00:46:17;3.45;;;2.67;;
53867;SDS011;41577;47.470;19.080;2023-07-29T00:46:30;3.15;;;2.83;;
53867;SDS011;41577;47.470;19.080;2023-07-29T00:46:45;5.13;;;3.17;;
53867;SDS011;41577;47.470;19.080;2023-07-29T00:46:57;5.43;;;3.20;;
53867;SDS011;41577;47.470;19.080;2023-07-29T00:47:12;4.53;;;3.10;;
53867;SDS011;41577;47.470;19.080;2023-07-29T00:47:26;6.55;;;3.00;;
53867;SDS011;41577;47.470;19.080;2023-07-29T00:47:38;5.78;;;2.88;;
53867;SDS011;41577;47.470;19.080;2023-07-29T00:47:50;5.10;;;2.90;;
53867;SDS011;41577;47.470;19.080;2023-07-29T00:48:02;4.85;;;3.03;;
53867;SDS011;41577;47.470;19.080;2023-07-29T00:48:17;6.25;;;3.25;;
53867;SDS011;41577;47.470;19.080;2023-07-29T00:48:29;5.75;;;3.40;;
53867;SDS011;41577;47.470;19.080;2023-07-29T00:48:41;4.72;;;3.53;;
53867;SDS011;41577;47.470;19.080;2023-07-29T00:48:54;4.47;;;3.40;;
53867;SDS011;41577;47.470;19.080;2023-07-29T00:49:08;6.93;;;3.20;;
53867;SDS011;41577;47.470;19.080;2023-07-29T00:49:19;8.25;;;3.15;;
53867;SDS011;41577;47.470;19.080;2023-07-29T00:49:32;7.70;;;3.33;;
53867;SDS011;41577;47.470;19.080;2023-07-29T00:49:44;4.30;;;3.30;;
53867;SDS011;41577;47.470;19.080;2023-07-29T00:49:56;5.32;;;3.20;;
53867;SDS011;41577;47.470;19.080;2023-07-29T00:50:08;5.82;;;3.10;;
53867;SDS011;41577;47.470;19.080;2023-07-29T00:50:21;4.28;;;2.97;;
53867;SDS011;41577;47.470;19.080;2023-07-29T00:50:33;4.13;;;2.95;;
53867;SDS011;41577;47.470;19.080;2023-07-29T00:50:45;5.53;;;2.95;;
53867;SDS011;41577;47.470;19.080;2023-07-29T00:50:57;6.53;;;2.97;;
53867;SDS011;41577;47.470;19.080;2023-07-29T00:51:11;4.70;;;3.13;;
53867;SDS011;41577;47.470;19.080;2023-07-29T00:51:23;4.25;;;3.28;;
53867;SDS011;41577;47.470;19.080;2023-07-29T00:51:34;5.80;;;3.50;;
53867;SDS011;41577;47.470;19.080;2023-07-29T00:51:46;4.70;;;3.17;;
53867;SDS011;41577;47.470;19.080;2023-07-29T00:51:58;4.75;;;3.15;;
53867;SDS011;41577;47.470;19.080;2023-07-29T00:52:10;6.68;;;3.20;;
53867;SDS011;41577;47.470;19.080;2023-07-29T00:52:22;13.67;;;3.40;;
53867;SDS011;41577;47.470;19.080;2023-07-29T00:52:34;10.50;;;3.17;;
53867;SDS011;41577;47.470;19.080;2023-07-29T00:52:46;7.85;;;3.35;;
53867;SDS011;41577;47.470;19.080;2023-07-29T00:53:00;7.22;;;3.38;;
53867;SDS011;41577;47.470;19.080;2023-07-29T00:53:12;6.63;;;3.28;;
53867;SDS011;41577;47.470;19.080;2023-07-29T00:53:23;6.68;;;3.10;;
53867;SDS011;41577;47.470;19.080;2023-07-29T00:53:35;6.38;;;3.22;;
53867;SDS011;41577;47.470;19.080;2023-07-29T00:53:47;6.05;;;3.17;;
53867;SDS011;41577;47.470;19.080;2023-07-29T00:53:59;9.40;;;3.40;;
53867;SDS011;41577;47.470;19.080;2023-07-29T00:54:11;9.95;;;3.47;;
53867;SDS011;41577;47.470;19.080;2023-07-29T00:54:24;10.38;;;3.60;;
53867;SDS011;41577;47.470;19.080;2023-07-29T00:54:36;5.15;;;3.08;;
53867;SDS011;41577;47.470;19.080;2023-07-29T00:54:48;6.43;;;3.05;;
53867;SDS011;41577;47.470;19.080;2023-07-29T00:55:00;6.68;;;3.15;;
53867;SDS011;41577;47.470;19.080;2023-07-29T00:55:12;6.97;;;3.00;;
53867;SDS011;41577;47.470;19.080;2023-07-29T00:55:24;7.53;;;3.25;;
53867;SDS011;41577;47.470;19.080;2023-07-29T00:55:36;7.20;;;3.47;;
53867;SDS011;41577;47.470;19.080;2023-07-29T00:55:48;6.40;;;4.00;;
53867;SDS011;41577;47.470;19.080;2023-07-29T00:56:00;5.57;;;3.95;;
53867;SDS011;41577;47.470;19.080;2023-07-29T00:56:12;6.03;;;3.10;;
53867;SDS011;41577;47.470;19.080;2023-07-29T00:56:24;5.68;;;2.97;;
53867;SDS011;41577;47.470;19.080;2023-07-29T00:56:36;4.00;;;2.95;;
53867;SDS011;41577;47.470;19.080;2023-07-29T00:56:49;4.00;;;3.15;;
53867;SDS011;41577;47.470;19.080;2023-07-29T00:57:01;4.43;;;3.20;;
53867;SDS011;41577;47.470;19.080;2023-07-29T00:57:12;5.22;;;3.38;;
53867;SDS011;41577;47.470;19.080;2023-07-29T00:57:26;5.82;;;3.33;;
53867;SDS011;41577;47.470;19.080;2023-07-29T00:57:41;4.78;;;3.28;;
53867;SDS011;41577;47.470;19.080;2023-07-29T00:57:53;4.35;;;3.35;;
53867;SDS011;41577;47.470;19.080;2023-07-29T00:58:05;6.22;;;3.17;;
53867;SDS011;41577;47.470;19.080;2023-07-29T00:58:18;6.50;;;3.10;;
53867;SDS011;41577;47.470;19.080;2023-07-29T00:58:31;6.00;;;2.85;;
53867;SDS011;41577;47.470;19.080;2023-07-29T00:58:43;6.60;;;2.70;;
53867;SDS011;41577;47.470;19.080;2023-07-29T00:58:54;7.03;;;3.08;;
53867;SDS011;41577;47.470;19.080;2023-07-29T00:59:06;7.15;;;3.40;;
53867;SDS011;41577;47.470;19.080;2023-07-29T00:59:18;7.43;;;3.45;;
53867;SDS011;41577;47.470;19.080;2023-07-29T00:59:30;5.25;;;3.28;;
53867;SDS011;41577;47.470;19.080;2023-07-29T00:59:42;3.90;;;3.15;;
53867;SDS011;41577;47.470;19.080;2023-07-29T00:59:54;3.75;;;3.08;;
53867;SDS011;41577;47.470;19.080;2023-07-29T01:00:07;3.85;;;3.00;;
53867;SDS011;41577;47.470;19.080;2023-07-29T01:00:20;6.53;;;2.72;;
53867;SDS011;41577;47.470;19.080;2023-07-29T01:00:32;7.03;;;2.90;;
53867;SDS011;41577;47.470;19.080;2023-07-29T01:00:44;6.40;;;2.92;;
53867;SDS011;41577;47.470;19.080;2023-07-29T01:00:56;6.28;;;3.05;;
53867;SDS011;41577;47.470;19.080;2023-07-29T01:01:08;6.88;;;3.08;;
53867;SDS011;41577;47.470;19.080;2023-07-29T01:01:21;6.28;;;3.10;;
53867;SDS011;41577;47.470;19.080;2023-07-29T01:01:33;5.32;;;2.83;;
53867;SDS011;41577;47.470;19.080;2023-07-29T01:01:47;5.40;;;2.90;;
53867;SDS011;41577;47.470;19.080;2023-07-29T01:01:59;5.25;;;2.90;;
53867;SDS011;41577;47.470;19.080;2023-07-29T01:02:11;4.13;;;2.90;;
53867;SDS011;41577;47.470;19.080;2023-07-29T01:02:23;4.13;;;2.92;;
53867;SDS011;41577;47.470;19.080;2023-07-29T01:02:35;4.80;;;3.20;;
53867;SDS011;41577;47.470;19.080;2023-07-29T01:02:48;5.88;;;3.05;;
53867;SDS011;41577;47.470;19.080;2023-07-29T01:03:00;5.28;;;2.80;;
53867;SDS011;41577;47.470;19.080;2023-07-29T01:03:12;4.32;;;2.85;;
53867;SDS011;41577;47.470;19.080;2023-07-29T01:03:25;4.28;;;2.97;;
53867;SDS011;41577;47.470;19.080;2023-07-29T01:03:37;3.58;;;2.90;;
53867;SDS011;41577;47.470;19.080;2023-07-29T01:03:49;3.63;;;2.90;;
53867;SDS011;41577;47.470;19.080;2023-07-29T01:04:01;4.72;;;2.88;;
53867;SDS011;41577;47.470;19.080;2023-07-29T01:04:13;4.15;;;2.78;;
53867;SDS011;41577;47.470;19.080;2023-07-29T01:04:25;3.60;;;2.67;;
53867;SDS011;41577;47.470;19.080;2023-07-29T01:04:37;4.07;;;2.80;;
53867;SDS011;41577;47.470;19.080;2023-07-29T01:04:51;6.47;;;3.22;;
53867;SDS011;41577;47.470;19.080;2023-07-29T01:05:04;7.28;;;3.42;;
53867;SDS011;41577;47.470;19.080;2023-07-29T01:05:17;4.85;;;3.38;;
53867;SDS011;41577;47.470;19.080;2023-07-29T01:05:40;5.53;;;3.25;;
53867;SDS011;41577;47.470;19.080;2023-07-29T01:06:05;5.05;;;3.30;;
53867;SDS011;41577;47.470;19.080;2023-07-29T01:06:26;4.75;;;2.80;;
53867;SDS011;41577;47.470;19.080;2023-07-29T01:06:48;5.85;;;2.83;;
53867;SDS011;41577;47.470;19.080;2023-07-29T01:07:06;9.10;;;3.00;;
53867;SDS011;41577;47.470;19.080;2023-07-29T01:07:27;10.30;;;2.55;;
53867;SDS011;41577;47.470;19.080;2023-07-29T01:07:46;3.88;;;2.65;;
53867;SDS011;41577;47.470;19.080;2023-07-29T01:08:04;3.33;;;2.85;;
53867;SDS011;41577;47.470;19.080;2023-07-29T01:08:21;5.05;;;2.95;;
53867;SDS011;41577;47.470;19.080;2023-07-29T01:08:44;5.68;;;3.53;;
53867;SDS011;41577;47.470;19.080;2023-07-29T01:09:00;4.10;;;3.13;;
53867;SDS011;41577;47.470;19.080;2023-07-29T01:09:16;4.90;;;2.95;;
53867;SDS011;41577;47.470;19.080;2023-07-29T01:09:37;4.93;;;3.28;;
53867;SDS011;41577;47.470;19.080;2023-07-29T01:10:00;6.35;;;2.95;;
53867;SDS011;41577;47.470;19.080;2023-07-29T01:10:17;5.55;;;2.55;;
53867;SDS011;41577;47.470;19.080;2023-07-29T01:10:36;3.80;;;2.20;;
53867;SDS011;41577;47.470;19.080;2023-07-29T01:10:58;3.45;;;2.92;;
53867;SDS011;41577;47.470;19.080;2023-07-29T01:11:18;8.27;;;2.92;;
53867;SDS011;41577;47.470;19.080;2023-07-29T01:11:44;4.65;;;2.45;;
53867;SDS011;41577;47.470;19.080;2023-07-29T01:12:06;5.15;;;2.83;;
53867;SDS011;41577;47.470;19.080;2023-07-29T01:12:23;5.63;;;3.05;;
53867;SDS011;41577;47.470;19.080;2023-07-29T01:12:42;6.32;;;3.20;;
53867;SDS011;41577;47.470;19.080;2023-07-29T01:13:01;6.32;;;2.67;;
53867;SDS011;41577;47.470;19.080;2023-07-29T01:13:19;4.43;;;2.38;;
53867;SDS011;41577;47.470;19.080;2023-07-29T01:13:36;5.90;;;2.65;;
53867;SDS011;41577;47.470;19.080;2023-07-29T01:13:58;4.55;;;2.97;;
53867;SDS011;41577;47.470;19.080;2023-07-29T01:14:17;3.83;;;2.90;;
53867;SDS011;41577;47.470;19.080;2023-07-29T01:14:39;4.07;;;2.90;;
53867;SDS011;41577;47.470;19.080;2023-07-29T01:14:59;3.78;;;3.10;;
53867;SDS011;41577;47.470;19.080;2023-07-29T01:15:16;4.32;;;3.08;;
53867;SDS011;41577;47.470;19.080;2023-07-29T01:15:33;3.55;;;2.78;;
53867;SDS011;41577;47.470;19.080;2023-07-29T01:15:52;2.85;;;2.65;;
53867;SDS011;41577;47.470;19.080;2023-07-29T01:16:08;3.10;;;2.80;;
53867;SDS011;41577;47.470;19.080;2023-07-29T01:16:29;3.05;;;2.70;;
53867;SDS011;41577;47.470;19.080;2023-07-29T01:16:45;3.33;;;2.85;;
53867;SDS011;41577;47.470;19.080;2023-07-29T01:17:03;2.65;;;2.45;;